createdAt,value
2022-08-16T00:01:06.476Z,69.7
2022-08-16T00:07:04.391Z,69.8
2022-08-16T00:13:04.422Z,70
2022-08-16T00:19:04.459Z,70.4
2022-08-16T00:25:04.392Z,70.8
2022-08-16T00:31:04.419Z,70.9
2022-08-16T00:37:04.424Z,71.3
2022-08-16T00:43:04.426Z,71.1
2022-08-16T00:49:04.397Z,71.3
2022-08-16T00:55:04.405Z,71.2
2022-08-16T01:01:08.283Z,71.7
2022-08-16T01:07:04.417Z,72.9
2022-08-16T01:13:05.327Z,72.8
2022-08-16T01:19:04.448Z,72.8
2022-08-16T01:25:04.412Z,73.5
2022-08-16T01:31:04.445Z,74
2022-08-16T01:37:04.422Z,74.3
2022-08-16T01:43:05.756Z,74.7
2022-08-16T01:49:04.422Z,75.2
2022-08-16T01:55:04.401Z,75.7
2022-08-16T02:01:04.513Z,75.1
2022-08-16T02:07:04.423Z,75.4
2022-08-16T02:13:04.650Z,75.4
2022-08-16T02:19:04.436Z,76.2
2022-08-16T02:25:04.417Z,76
2022-08-16T02:31:04.441Z,76.6
2022-08-16T02:37:04.494Z,77.2
2022-08-16T02:43:04.472Z,77.6
2022-08-16T02:49:04.454Z,77.6
2022-08-16T02:55:04.442Z,78.5
2022-08-16T03:01:04.592Z,78.6
2022-08-16T03:07:04.464Z,78.8
2022-08-16T03:13:04.510Z,79.4
2022-08-16T03:19:04.435Z,80
2022-08-16T03:25:04.439Z,80.2
2022-08-16T03:31:04.436Z,80.9
2022-08-16T03:37:04.710Z,81.6
2022-08-16T03:43:20.160Z,81.8
2022-08-16T03:49:04.441Z,82.3
2022-08-16T03:55:04.446Z,83
2022-08-16T04:01:04.574Z,83.9
2022-08-16T04:07:05.710Z,83.7
2022-08-16T04:13:04.879Z,84.3
2022-08-16T04:19:04.893Z,85.1
2022-08-16T04:25:04.459Z,85.5
2022-08-16T04:31:04.472Z,85.7
2022-08-16T04:37:04.447Z,85.8
2022-08-16T04:43:04.434Z,85.5
2022-08-16T04:49:04.499Z,86.3
2022-08-16T04:55:04.448Z,86
2022-08-16T05:01:07.879Z,86.3
2022-08-16T05:07:04.469Z,86.6
2022-08-16T05:13:04.447Z,86
2022-08-16T05:19:04.462Z,86.7
2022-08-16T05:25:08.815Z,85.7
2022-08-16T05:31:06.673Z,86
2022-08-16T05:37:04.457Z,85.5
2022-08-16T05:43:04.478Z,85.6
2022-08-16T05:49:08.534Z,85.3
2022-08-16T05:55:04.467Z,84.4
2022-08-16T06:01:04.515Z,83.9
2022-08-16T06:07:06.888Z,82.3
2022-08-16T06:13:04.465Z,81.6
2022-08-16T06:19:05.011Z,80.8
2022-08-16T06:25:04.504Z,80
2022-08-16T06:31:04.634Z,78.5
2022-08-16T06:37:04.494Z,77
2022-08-16T06:43:04.620Z,73.5
2022-08-16T06:49:05.499Z,64.9
2022-08-16T06:55:04.472Z,56.4
2022-08-16T07:01:04.609Z,50.8
2022-08-16T07:07:04.517Z,47.1
2022-08-16T07:13:11.508Z,42.7
2022-08-16T07:19:04.505Z,42.6
2022-08-16T07:25:04.477Z,40.7
2022-08-16T07:31:04.512Z,37.6
2022-08-16T07:37:04.483Z,36.6
2022-08-16T07:43:05.155Z,37.8
2022-08-16T07:49:04.510Z,34.4
2022-08-16T07:55:04.504Z,34.1
2022-08-16T08:01:04.587Z,32.5
2022-08-16T08:07:04.491Z,32
2022-08-16T08:13:04.536Z,30.7
2022-08-16T08:19:04.530Z,31.3
2022-08-16T08:25:04.532Z,30.3
2022-08-16T08:31:04.588Z,28.5
2022-08-16T08:37:04.542Z,28.3
2022-08-16T08:43:12.677Z,26.7
2022-08-16T08:49:04.537Z,28.1
2022-08-16T08:55:04.527Z,26.7
2022-08-16T09:01:04.554Z,27.6
2022-08-16T09:07:04.567Z,24.9
2022-08-16T09:13:04.524Z,23.5
2022-08-16T09:19:04.573Z,27.1
2022-08-16T09:25:11.256Z,27.3
2022-08-16T09:31:04.573Z,23.8
2022-08-16T09:37:19.638Z,23.2
2022-08-16T09:43:04.574Z,25.8
2022-08-16T09:49:04.669Z,25.2
2022-08-16T09:55:04.556Z,25.5
2022-08-16T10:01:04.586Z,25
2022-08-16T10:07:14.667Z,24.8
2022-08-16T10:13:04.588Z,23.3
2022-08-16T10:19:06.968Z,23.6
2022-08-16T10:25:04.586Z,24.6
2022-08-16T10:31:04.647Z,27.9
2022-08-16T10:37:04.587Z,26.1
2022-08-16T10:43:04.628Z,23.9
2022-08-16T10:49:05.265Z,21.1
2022-08-16T11:07:08.302Z,20.8
2022-08-16T11:19:12.019Z,22
2022-08-16T11:25:12.517Z,24.8
2022-08-16T11:31:04.619Z,26.7
2022-08-16T11:37:04.625Z,28
2022-08-16T11:43:05.035Z,26.9
2022-08-16T11:49:05.958Z,25.6
2022-08-16T11:55:04.656Z,26.6
2022-08-16T12:01:04.672Z,28.3
2022-08-16T12:07:04.678Z,27.9
2022-08-16T12:13:04.641Z,28.2
2022-08-16T12:19:04.794Z,26.8
2022-08-16T12:25:04.727Z,28.1
2022-08-16T12:31:04.639Z,27
2022-08-16T12:37:08.944Z,29.1
2022-08-16T12:43:04.638Z,28.4
2022-08-16T12:49:04.663Z,27.3
2022-08-16T12:55:04.641Z,29.1
2022-08-16T13:01:04.722Z,28.4
2022-08-16T13:07:05.105Z,29.4
2022-08-16T13:13:04.667Z,29.2
2022-08-16T13:19:04.659Z,29.7
2022-08-16T13:25:04.700Z,29.5
2022-08-16T13:31:04.665Z,29.5
2022-08-16T13:37:04.690Z,29.6
2022-08-16T13:43:04.666Z,28.7
2022-08-16T13:49:04.693Z,30.1
2022-08-16T13:55:04.685Z,29.3
2022-08-16T14:01:04.678Z,30.5
2022-08-16T14:07:04.703Z,30.3
2022-08-16T14:13:04.696Z,30.3
2022-08-16T14:19:04.708Z,31.5
2022-08-16T14:25:07.238Z,30.5
2022-08-16T14:31:04.722Z,30.3
2022-08-16T14:37:04.683Z,30
2022-08-16T14:43:06.220Z,29.8
2022-08-16T14:49:04.746Z,31.7
2022-08-16T14:55:04.736Z,30.2
2022-08-16T15:01:04.811Z,30
2022-08-16T15:07:05.220Z,30.1
2022-08-16T15:13:04.722Z,31.3
2022-08-16T15:19:04.717Z,30
2022-08-16T15:25:04.706Z,30
2022-08-16T15:31:04.748Z,30
2022-08-16T15:37:04.747Z,30.2
2022-08-16T15:43:04.737Z,30.1
2022-08-16T15:49:04.778Z,30.3
2022-08-16T15:55:13.032Z,29.8
2022-08-16T16:01:04.804Z,30.4
2022-08-16T16:07:04.735Z,30.1
2022-08-16T16:13:04.851Z,30.1
2022-08-16T16:19:04.720Z,29.3
2022-08-16T16:25:04.725Z,30.5
2022-08-16T16:31:04.785Z,30.4
2022-08-16T16:37:04.745Z,31.4
2022-08-16T16:43:05.023Z,30.2
2022-08-16T16:49:04.760Z,31.4
2022-08-16T16:55:04.779Z,31
2022-08-16T17:01:04.815Z,30.8
2022-08-16T17:07:10.616Z,32.5
2022-08-16T17:13:05.344Z,32
2022-08-16T17:19:16.825Z,31.5
2022-08-16T17:25:07.315Z,31.6
2022-08-16T17:31:04.781Z,31.2
2022-08-16T17:37:05.282Z,33.3
2022-08-16T17:43:04.786Z,33.8
2022-08-16T17:49:04.767Z,33.6
2022-08-16T17:55:04.777Z,34.7
2022-08-16T18:01:04.829Z,33.6
2022-08-16T18:07:04.782Z,34.8
2022-08-16T18:13:04.784Z,34.3
2022-08-16T18:19:04.809Z,34.5
2022-08-16T18:25:04.844Z,33.8
2022-08-16T18:31:05.383Z,34.2
2022-08-16T18:37:04.818Z,34
2022-08-16T18:43:04.807Z,34.3
2022-08-16T18:49:04.792Z,34.7
2022-08-16T18:55:14.022Z,34.8
2022-08-16T19:01:04.861Z,35.1
2022-08-16T19:07:04.821Z,35.5
2022-08-16T19:13:04.796Z,35.6
2022-08-16T19:19:04.789Z,36.5
2022-08-16T19:25:04.816Z,37.4
2022-08-16T19:31:04.808Z,38.2
2022-08-16T19:37:04.873Z,39.3
2022-08-16T19:43:04.816Z,39.6
2022-08-16T19:49:04.812Z,39.8
2022-08-16T19:55:04.832Z,39.9
2022-08-16T20:01:04.816Z,40.9
2022-08-16T20:07:04.847Z,42.1
2022-08-16T20:13:04.852Z,43.6
2022-08-16T20:19:04.848Z,44.5
2022-08-16T20:25:04.860Z,45.3
2022-08-16T20:31:04.839Z,45.5
2022-08-16T20:37:04.842Z,44.8
2022-08-16T20:43:04.848Z,44.8
2022-08-16T20:49:04.826Z,44.6
2022-08-16T20:55:04.851Z,44.5
2022-08-16T21:01:04.891Z,44.1
2022-08-16T21:07:04.842Z,44
2022-08-16T21:13:04.877Z,44.8
2022-08-16T21:19:04.845Z,45.1
2022-08-16T21:25:04.869Z,45.4
2022-08-16T21:31:04.843Z,45.7
2022-08-16T21:37:04.895Z,46.4
2022-08-16T21:43:04.856Z,47.1
2022-08-16T21:49:04.868Z,47.6
2022-08-16T21:55:04.875Z,48.1
2022-08-16T22:01:04.881Z,48.5
2022-08-16T22:07:04.911Z,49.2
2022-08-16T22:13:04.891Z,49.3
2022-08-16T22:19:04.869Z,49
2022-08-16T22:25:04.887Z,49.3
2022-08-16T22:31:04.888Z,49.5
2022-08-16T22:37:04.865Z,49.4
2022-08-16T22:43:04.879Z,49.8
2022-08-16T22:49:04.890Z,49.7
2022-08-16T22:55:04.858Z,49.7
2022-08-16T23:01:04.955Z,49.6
2022-08-16T23:07:04.900Z,49.7
2022-08-16T23:13:04.879Z,49.5
2022-08-16T23:19:04.870Z,49.4
2022-08-16T23:25:04.942Z,49.3
2022-08-16T23:31:04.884Z,49.6
2022-08-16T23:37:04.877Z,50
2022-08-16T23:43:04.890Z,50.2
2022-08-16T23:49:58.909Z,50
2022-08-16T23:55:04.919Z,50.1
